Time;durP1;ratioP1;P1;durP2;ratioP2;P2;SDS_P1;SDS_P2;PMS_P1;PMS_P2;Temp;Humidity;BMP_temperature;BMP_pressure;BME280_temperature;BME280_humidity;BME280_pressure;Samples;Min_cycle;Max_cycle;Signal;HPM_P1;HPM_P2
2023/09/08 00:01:33;;;;;;;6.50;4.93;;;18.80;98.60;;;;;;5053269;28;20040;-65
2023/09/08 00:03:59;;;;;;;9.93;6.63;;;18.80;98.70;;;;;;5053522;28;20052;-65
2023/09/08 00:06:25;;;;;;;7.65;5.25;;;18.80;98.80;;;;;;5053277;28;20115;-65
2023/09/08 00:08:51;;;;;;;7.93;5.60;;;18.70;98.80;;;;;;5054764;28;20035;-65
2023/09/08 00:11:17;;;;;;;6.95;5.70;;;18.70;98.90;;;;;;5052477;28;20102;-65
2023/09/08 00:13:43;;;;;;;6.88;5.30;;;18.70;99.00;;;;;;5041828;28;20579;-65
2023/09/08 00:16:10;;;;;;;8.35;5.93;;;18.60;99.20;;;;;;5052124;28;20033;-65
2023/09/08 00:18:35;;;;;;;7.65;5.72;;;18.60;99.20;;;;;;5055277;28;20472;-65
2023/09/08 00:21:01;;;;;;;6.50;4.95;;;18.60;99.20;;;;;;5052467;28;20044;-65
2023/09/08 00:23:28;;;;;;;6.88;5.05;;;18.60;99.30;;;;;;5053690;28;20824;-65
2023/09/08 00:25:54;;;;;;;9.00;5.22;;;18.60;99.40;;;;;;5052834;28;20404;-65
2023/09/08 00:28:19;;;;;;;6.65;5.18;;;18.50;99.40;;;;;;5053002;28;20607;-65
2023/09/08 00:30:45;;;;;;;9.57;5.47;;;18.50;99.70;;;;;;5037390;28;20029;-65
2023/09/08 00:33:13;;;;;;;7.15;5.53;;;18.50;99.50;;;;;;5039822;28;20033;-65
2023/09/08 00:35:40;;;;;;;9.80;5.75;;;18.50;99.60;;;;;;5020337;28;20032;-65
2023/09/08 00:38:05;;;;;;;7.93;5.55;;;18.40;99.70;;;;;;5052632;28;20277;-65
2023/09/08 00:40:32;;;;;;;7.18;5.43;;;18.40;99.80;;;;;;5039552;28;20123;-65
2023/09/08 00:42:58;;;;;;;7.75;5.75;;;18.40;99.90;;;;;;5051499;28;20075;-65
2023/09/08 00:45:26;;;;;;;8.65;5.55;;;18.40;99.90;;;;;;5054683;28;20043;-65
2023/09/08 00:47:52;;;;;;;8.05;5.85;;;18.40;99.90;;;;;;5051736;28;20408;-65
2023/09/08 00:50:17;;;;;;;7.20;5.30;;;18.30;99.90;;;;;;5053597;28;20025;-65
2023/09/08 00:52:43;;;;;;;7.47;5.88;;;18.30;99.90;;;;;;5052766;28;20050;-65
2023/09/08 00:55:09;;;;;;;7.25;5.78;;;18.30;99.90;;;;;;5041648;28;20852;-65
2023/09/08 00:57:35;;;;;;;9.18;5.97;;;18.20;99.90;;;;;;5056313;28;20053;-65
2023/09/08 01:00:04;;;;;;;6.57;5.63;;;18.30;99.90;;;;;;5041726;28;20033;-65
2023/09/08 01:02:31;;;;;;;6.78;5.30;;;18.20;99.90;;;;;;5036879;28;20032;-65
2023/09/08 01:04:59;;;;;;;9.73;6.07;;;18.20;99.90;;;;;;5056644;28;20040;-65
2023/09/08 01:07:28;;;;;;;7.78;5.32;;;18.20;99.90;;;;;;5056470;28;20112;-65
2023/09/08 01:09:54;;;;;;;7.70;5.28;;;18.20;99.90;;;;;;5056801;28;20029;-65
2023/09/08 01:12:20;;;;;;;12.32;5.82;;;18.20;99.90;;;;;;5037370;28;20029;-65
2023/09/08 01:14:46;;;;;;;6.53;5.25;;;18.20;99.90;;;;;;5053224;28;20029;-65
2023/09/08 01:17:14;;;;;;;8.70;5.78;;;18.20;99.90;;;;;;5038071;28;20448;-65
2023/09/08 01:19:42;;;;;;;9.45;5.35;;;18.20;99.90;;;;;;5058370;28;20427;-65
2023/09/08 01:22:21;;;;;;;8.75;6.22;;;18.20;99.90;;;;;;5055014;28;20033;-65
2023/09/08 01:25:17;;;;;;;8.63;6.22;;;18.20;99.90;;;;;;5052403;28;20048;-65
2023/09/08 01:27:48;;;;;;;6.93;5.75;;;18.20;99.90;;;;;;5057863;28;20032;-65
2023/09/08 01:30:15;;;;;;;7.70;5.80;;;18.20;99.90;;;;;;5026498;28;20037;-65
2023/09/08 01:32:41;;;;;;;9.80;5.78;;;18.20;99.90;;;;;;5048548;28;20051;-65
2023/09/08 01:35:07;;;;;;;7.88;5.38;;;18.20;99.90;;;;;;5055490;28;20112;-65
2023/09/08 01:37:34;;;;;;;6.45;5.63;;;18.20;99.90;;;;;;5040208;28;20048;-65
2023/09/08 01:40:00;;;;;;;10.32;6.00;;;18.20;99.90;;;;;;5041757;28;20036;-65
2023/09/08 01:42:26;;;;;;;7.35;6.00;;;18.20;99.90;;;;;;5055400;28;20021;-65
2023/09/08 01:44:52;;;;;;;7.07;5.80;;;18.10;99.90;;;;;;5056795;28;20448;-65
2023/09/08 01:47:18;;;;;;;7.05;5.82;;;18.10;99.90;;;;;;5038538;28;20056;-65
2023/09/08 01:49:44;;;;;;;5.68;5.10;;;18.10;99.90;;;;;;5057369;28;20072;-65
2023/09/08 01:52:10;;;;;;;7.57;5.82;;;18.10;99.90;;;;;;5037512;28;20115;-65
2023/09/08 01:54:35;;;;;;;9.02;5.82;;;18.10;99.90;;;;;;5051734;28;20033;-65
2023/09/08 01:57:02;;;;;;;8.82;6.22;;;18.10;99.90;;;;;;5040382;28;20055;-65
2023/09/08 01:59:28;;;;;;;7.60;5.82;;;18.10;99.90;;;;;;5044698;28;20039;-65
2023/09/08 02:01:53;;;;;;;7.63;5.85;;;18.10;99.90;;;;;;5038816;28;20497;-65
2023/09/08 02:04:19;;;;;;;9.20;5.78;;;18.10;99.90;;;;;;5053855;28;20021;-65
2023/09/08 02:06:45;;;;;;;9.32;5.65;;;18.00;99.90;;;;;;5040178;28;20035;-65
2023/09/08 02:09:14;;;;;;;8.68;6.03;;;18.00;99.90;;;;;;5042215;28;20031;-65
2023/09/08 02:11:40;;;;;;;7.45;5.82;;;18.00;99.90;;;;;;5052684;28;20486;-65
2023/09/08 02:14:06;;;;;;;6.45;5.55;;;18.00;99.90;;;;;;5045381;28;20027;-65
2023/09/08 02:16:32;;;;;;;10.60;6.25;;;18.00;99.90;;;;;;5042109;28;20697;-65
2023/09/08 02:18:58;;;;;;;7.25;6.47;;;18.00;99.90;;;;;;5041907;28;20033;-65
2023/09/08 02:21:24;;;;;;;8.82;6.05;;;17.90;99.90;;;;;;5056736;28;20086;-65
2023/09/08 02:23:50;;;;;;;7.18;5.88;;;17.90;99.90;;;;;;5053667;28;20064;-65
2023/09/08 02:26:16;;;;;;;9.32;6.15;;;17.90;99.90;;;;;;5040703;28;20118;-65
2023/09/08 02:28:42;;;;;;;6.78;5.47;;;17.90;99.90;;;;;;5054143;28;20651;-65
2023/09/08 02:31:08;;;;;;;9.32;6.43;;;17.80;99.90;;;;;;5040040;28;20120;-65
2023/09/08 02:33:34;;;;;;;7.90;6.35;;;17.80;99.90;;;;;;5054466;28;20033;-65
2023/09/08 02:36:07;;;;;;;8.88;6.10;;;17.80;99.90;;;;;;5040080;28;20158;-65
2023/09/08 02:38:34;;;;;;;9.07;6.60;;;17.80;99.90;;;;;;5036695;28;20186;-65
2023/09/08 02:41:00;;;;;;;6.85;6.00;;;17.70;99.90;;;;;;5040361;28;20037;-65
2023/09/08 02:43:27;;;;;;;8.77;6.10;;;17.70;99.90;;;;;;5037496;28;20582;-65
2023/09/08 02:45:53;;;;;;;9.77;6.18;;;17.70;99.90;;;;;;5055509;28;20032;-65
2023/09/08 02:48:19;;;;;;;8.35;6.57;;;17.70;99.90;;;;;;5036259;28;20036;-65
2023/09/08 02:50:44;;;;;;;8.80;6.10;;;17.70;99.90;;;;;;5042469;28;20028;-65
2023/09/08 02:53:10;;;;;;;8.55;6.57;;;17.70;99.90;;;;;;5036146;28;20409;-65
2023/09/08 02:55:36;;;;;;;9.35;6.45;;;17.80;99.90;;;;;;5056813;28;20770;-65
2023/09/08 02:58:03;;;;;;;10.48;6.68;;;17.70;99.90;;;;;;5035720;28;20080;-65
2023/09/08 03:00:29;;;;;;;10.93;6.85;;;17.70;99.90;;;;;;5055421;28;20147;-65
2023/09/08 03:02:55;;;;;;;9.05;6.60;;;17.70;99.90;;;;;;5036726;28;20041;-65
2023/09/08 03:05:21;;;;;;;9.35;6.97;;;17.70;99.90;;;;;;5054026;28;20078;-65
2023/09/08 03:07:49;;;;;;;9.63;6.40;;;17.70;99.90;;;;;;5037927;28;20485;-65
2023/09/08 03:10:15;;;;;;;8.68;6.25;;;17.70;99.90;;;;;;5041197;28;20032;-65
2023/09/08 03:12:41;;;;;;;8.95;6.65;;;17.70;99.90;;;;;;5052355;28;20033;-65
2023/09/08 03:15:08;;;;;;;10.90;6.95;;;17.70;99.90;;;;;;5040525;28;20120;-65
2023/09/08 03:17:34;;;;;;;8.63;6.25;;;17.70;99.90;;;;;;5055709;28;20408;-65
2023/09/08 03:20:00;;;;;;;8.07;6.95;;;17.80;99.90;;;;;;5040599;28;20170;-65
2023/09/08 03:22:26;;;;;;;8.20;6.07;;;17.80;99.90;;;;;;5040724;28;20029;-65
2023/09/08 03:24:53;;;;;;;8.27;6.50;;;17.70;99.90;;;;;;5040750;28;20040;-65
2023/09/08 03:27:19;;;;;;;10.73;6.95;;;17.70;99.90;;;;;;5051511;28;20074;-65
2023/09/08 03:29:44;;;;;;;8.40;6.68;;;17.70;99.90;;;;;;5053908;28;20123;-65
2023/09/08 03:32:10;;;;;;;11.98;7.05;;;17.70;99.90;;;;;;5050386;28;20469;-65
2023/09/08 03:34:39;;;;;;;8.40;6.78;;;17.70;99.90;;;;;;5041201;28;20059;-65
2023/09/08 03:37:05;;;;;;;8.48;6.60;;;17.80;99.90;;;;;;5038655;28;20440;-65
2023/09/08 03:39:32;;;;;;;12.15;7.03;;;17.70;99.90;;;;;;5040530;28;20162;-65
2023/09/08 03:41:58;;;;;;;9.65;6.90;;;17.70;99.90;;;;;;5039123;28;20123;-65
2023/09/08 03:44:23;;;;;;;8.93;6.97;;;17.70;99.90;;;;;;5052622;28;20029;-65
2023/09/08 03:46:49;;;;;;;9.50;6.43;;;17.70;99.90;;;;;;5040580;28;20040;-65
2023/09/08 03:49:15;;;;;;;11.27;7.25;;;17.60;99.90;;;;;;5038142;28;20067;-65
2023/09/08 03:51:41;;;;;;;10.18;7.05;;;17.60;99.90;;;;;;5037871;28;20711;-65
2023/09/08 03:54:06;;;;;;;11.98;6.55;;;17.50;99.90;;;;;;5037888;28;20025;-65
2023/09/08 03:56:33;;;;;;;10.52;7.03;;;17.50;99.90;;;;;;5042319;28;20116;-65
2023/09/08 03:58:59;;;;;;;9.10;6.95;;;17.50;99.90;;;;;;5038150;28;20615;-65
2023/09/08 04:01:25;;;;;;;10.13;6.88;;;17.50;99.90;;;;;;5041119;28;20035;-65
2023/09/08 04:03:50;;;;;;;10.07;7.05;;;17.40;99.90;;;;;;5053030;28;20495;-65
2023/09/08 04:06:16;;;;;;;9.00;6.90;;;17.40;99.90;;;;;;5052638;28;20029;-65
2023/09/08 04:08:43;;;;;;;12.45;7.22;;;17.40;99.90;;;;;;5036915;28;20025;-65
2023/09/08 04:11:08;;;;;;;11.18;7.70;;;17.40;99.90;;;;;;5052260;28;20033;-65
2023/09/08 04:13:34;;;;;;;8.98;7.15;;;17.30;99.90;;;;;;5037829;28;20032;-65
2023/09/08 04:16:00;;;;;;;11.82;7.28;;;17.40;99.90;;;;;;5039801;28;20032;-65
2023/09/08 04:18:26;;;;;;;10.07;7.55;;;17.30;99.90;;;;;;5039096;28;20021;-65
2023/09/08 04:20:51;;;;;;;10.88;7.50;;;17.30;99.90;;;;;;5039815;28;20475;-66
2023/09/08 04:23:17;;;;;;;13.10;7.43;;;17.30;99.90;;;;;;5038410;28;20889;-65
2023/09/08 04:25:43;;;;;;;8.70;7.05;;;17.30;99.90;;;;;;5040893;28;20037;-65
2023/09/08 04:28:09;;;;;;;9.57;7.30;;;17.30;99.90;;;;;;5038305;28;20045;-65
2023/09/08 04:30:34;;;;;;;12.57;7.70;;;17.20;99.90;;;;;;5042848;28;20061;-65
2023/09/08 04:33:00;;;;;;;13.73;7.55;;;17.30;99.90;;;;;;5039208;28;20025;-65
2023/09/08 04:35:26;;;;;;;9.20;7.43;;;17.30;99.90;;;;;;5056748;28;20638;-65
2023/09/08 04:37:53;;;;;;;13.32;7.95;;;17.20;99.90;;;;;;5057434;28;20028;-65
2023/09/08 04:40:19;;;;;;;9.52;7.18;;;17.20;99.90;;;;;;5055679;28;20551;-65
2023/09/08 04:42:45;;;;;;;11.27;7.90;;;17.20;99.90;;;;;;5042754;28;20032;-65
2023/09/08 04:45:11;;;;;;;11.80;8.07;;;17.20;99.90;;;;;;5041258;28;20853;-65
2023/09/08 04:47:37;;;;;;;8.82;7.38;;;17.10;99.90;;;;;;5044451;28;20052;-65
2023/09/08 04:50:04;;;;;;;13.88;8.48;;;17.20;99.90;;;;;;5040771;28;20090;-65
2023/09/08 04:52:30;;;;;;;10.48;7.35;;;17.10;99.90;;;;;;5045066;28;20036;-65
2023/09/08 04:54:56;;;;;;;10.82;7.65;;;17.10;99.90;;;;;;5041166;28;20032;-65
2023/09/08 04:57:22;;;;;;;10.27;7.55;;;17.10;99.90;;;;;;5043557;28;20090;-65
2023/09/08 04:59:48;;;;;;;10.80;7.15;;;17.10;99.90;;;;;;5042476;28;20088;-65
2023/09/08 05:02:15;;;;;;;10.63;7.20;;;17.00;99.90;;;;;;5056254;28;20037;-65
2023/09/08 05:04:40;;;;;;;11.75;7.47;;;17.10;99.90;;;;;;5055879;28;20033;-65
2023/09/08 05:07:06;;;;;;;10.43;7.53;;;17.10;99.90;;;;;;5042738;28;20035;-65
2023/09/08 05:09:33;;;;;;;11.63;8.13;;;17.10;99.90;;;;;;5039702;28;20029;-65
2023/09/08 05:12:00;;;;;;;9.88;7.35;;;17.10;99.90;;;;;;5043755;28;20503;-65
2023/09/08 05:14:25;;;;;;;10.77;7.70;;;17.10;99.90;;;;;;5038828;28;20365;-65
2023/09/08 05:16:55;;;;;;;11.48;7.75;;;17.10;99.90;;;;;;5045062;28;20029;-65
2023/09/08 05:19:23;;;;;;;10.30;8.25;;;17.10;99.90;;;;;;5038434;28;20078;-65
2023/09/08 05:21:51;;;;;;;12.98;8.32;;;17.20;99.90;;;;;;5045445;28;20033;-64
2023/09/08 05:24:18;;;;;;;9.23;7.82;;;17.20;99.90;;;;;;5038124;28;20480;-65
2023/09/08 05:26:43;;;;;;;10.40;7.40;;;17.20;99.90;;;;;;5046036;28;20040;-65
2023/09/08 05:29:09;;;;;;;8.88;6.97;;;17.30;99.90;;;;;;5038700;28;20581;-65
2023/09/08 05:31:35;;;;;;;10.18;7.13;;;17.30;99.90;;;;;;5045348;28;20117;-65
2023/09/08 05:34:03;;;;;;;10.68;7.40;;;17.30;99.90;;;;;;5038906;28;20617;-65
2023/09/08 05:36:29;;;;;;;9.43;7.18;;;17.40;99.90;;;;;;5039304;28;20117;-65
2023/09/08 05:38:56;;;;;;;9.35;7.22;;;17.40;99.90;;;;;;5037809;28;20171;-65
2023/09/08 05:41:23;;;;;;;10.32;7.53;;;17.40;99.90;;;;;;5040260;28;20025;-65
2023/09/08 05:43:49;;;;;;;11.18;6.97;;;17.40;99.90;;;;;;5040527;28;20189;-65
2023/09/08 05:46:16;;;;;;;8.35;6.88;;;17.50;99.90;;;;;;5039863;28;20040;-65
2023/09/08 05:48:43;;;;;;;12.07;7.90;;;17.50;99.90;;;;;;5041964;28;20032;-64
2023/09/08 05:51:09;;;;;;;8.05;6.72;;;17.50;99.90;;;;;;5039670;28;20694;-65
2023/09/08 05:53:39;;;;;;;9.23;7.45;;;17.50;99.90;;;;;;5039525;28;20021;-65
2023/09/08 05:56:05;;;;;;;13.05;7.78;;;17.60;99.90;;;;;;5041560;28;20416;-65
2023/09/08 05:58:31;;;;;;;10.73;7.82;;;17.60;99.90;;;;;;5043144;28;20043;-65
2023/09/08 06:00:57;;;;;;;9.38;6.97;;;17.70;99.90;;;;;;5054159;28;20036;-65
2023/09/08 06:03:24;;;;;;;9.30;7.20;;;17.70;99.90;;;;;;5042081;28;20033;-65
2023/09/08 06:05:50;;;;;;;8.82;7.05;;;17.80;99.90;;;;;;5040791;28;20158;-65
2023/09/08 06:08:15;;;;;;;10.07;7.25;;;17.80;99.90;;;;;;5027128;28;20033;-65
2023/09/08 06:10:42;;;;;;;8.85;7.25;;;17.90;99.90;;;;;;5040231;28;20025;-65
2023/09/08 06:13:08;;;;;;;10.75;8.10;;;17.90;99.90;;;;;;5040674;28;20029;-65
2023/09/08 06:15:34;;;;;;;9.90;7.28;;;18.00;99.90;;;;;;5038790;28;20074;-65
2023/09/08 06:18:00;;;;;;;10.13;6.93;;;18.00;99.90;;;;;;5041883;28;20402;-65
2023/09/08 06:20:27;;;;;;;9.80;7.30;;;18.10;99.90;;;;;;5037200;28;20040;-65
2023/09/08 06:22:53;;;;;;;10.52;7.80;;;18.20;99.90;;;;;;5042596;28;20136;-66
2023/09/08 06:25:19;;;;;;;10.52;7.45;;;18.30;99.90;;;;;;5053701;28;20127;-65
2023/09/08 06:27:45;;;;;;;9.80;7.95;;;18.40;99.90;;;;;;5044103;28;20029;-65
2023/09/08 06:30:14;;;;;;;10.88;7.40;;;18.40;99.90;;;;;;5037358;28;20516;-65
2023/09/08 06:32:40;;;;;;;10.77;7.60;;;18.50;99.90;;;;;;5044453;28;20021;-65
2023/09/08 06:35:06;;;;;;;10.45;7.25;;;18.50;99.90;;;;;;5036761;28;20797;-65
2023/09/08 06:37:36;;;;;;;9.65;6.85;;;18.60;99.90;;;;;;5043762;28;20059;-65
2023/09/08 06:40:03;;;;;;;9.20;6.82;;;18.70;99.90;;;;;;5037156;28;20061;-65
2023/09/08 06:42:29;;;;;;;9.27;7.35;;;18.80;99.90;;;;;;5043594;28;20032;-65
2023/09/08 06:45:06;;;;;;;8.57;6.80;;;19.00;99.90;;;;;;5036918;28;20056;-65
2023/09/08 06:47:32;;;;;;;8.70;6.60;;;19.10;99.90;;;;;;5044269;28;20107;-65
2023/09/08 06:49:58;;;;;;;8.57;6.50;;;19.20;99.90;;;;;;5038284;28;20037;-65
2023/09/08 06:52:24;;;;;;;10.75;6.82;;;19.30;99.90;;;;;;5054104;28;20530;-65
2023/09/08 06:54:50;;;;;;;7.50;5.75;;;19.30;99.90;;;;;;5039408;28;20063;-65
2023/09/08 06:57:19;;;;;;;7.90;6.20;;;19.40;99.90;;;;;;5053153;28;20025;-65
2023/09/08 06:59:45;;;;;;;7.90;5.80;;;19.60;99.90;;;;;;5041294;28;20024;-65
2023/09/08 07:02:11;;;;;;;9.95;6.47;;;19.80;99.90;;;;;;5038576;28;20572;-65
2023/09/08 07:04:37;;;;;;;8.75;6.07;;;19.90;99.90;;;;;;5041235;28;20422;-65
2023/09/08 07:07:06;;;;;;;7.70;6.13;;;20.10;99.90;;;;;;5038258;28;20029;-65
2023/09/08 07:09:37;;;;;;;7.97;6.03;;;20.30;99.90;;;;;;5041496;28;20032;-65
2023/09/08 07:12:04;;;;;;;11.20;6.13;;;20.50;99.90;;;;;;5041364;28;20083;-65
2023/09/08 07:14:31;;;;;;;8.73;6.63;;;20.80;99.50;;;;;;5041736;28;20051;-65
2023/09/08 07:16:57;;;;;;;6.88;5.47;;;21.30;99.10;;;;;;5038420;28;20056;-65
2023/09/08 07:19:23;;;;;;;9.73;6.05;;;21.80;97.90;;;;;;5040967;28;20052;-65
2023/09/08 07:21:49;;;;;;;9.00;6.63;;;22.00;97.00;;;;;;5053884;28;20033;-65
2023/09/08 07:24:15;;;;;;;9.15;6.50;;;22.10;96.80;;;;;;5038390;28;20132;-65
2023/09/08 07:26:41;;;;;;;9.65;5.72;;;22.10;96.50;;;;;;5038806;28;20123;-66
2023/09/08 07:29:07;;;;;;;7.30;5.95;;;22.00;96.70;;;;;;5039760;28;20057;-66
2023/09/08 07:31:33;;;;;;;7.90;5.32;;;21.90;96.80;;;;;;5054072;28;20552;-66
2023/09/08 07:33:59;;;;;;;7.72;6.10;;;22.10;96.60;;;;;;5040588;28;20082;-65
2023/09/08 07:36:26;;;;;;;10.75;5.90;;;22.00;95.30;;;;;;5036462;28;20214;-65
2023/09/08 07:38:52;;;;;;;9.95;6.03;;;21.90;95.40;;;;;;5035019;28;20028;-66
2023/09/08 07:41:18;;;;;;;8.43;5.60;;;21.90;95.50;;;;;;5036334;28;20055;-65
2023/09/08 07:43:45;;;;;;;9.45;5.90;;;21.90;95.60;;;;;;5056115;28;20024;-65
2023/09/08 07:46:12;;;;;;;9.20;4.90;;;22.00;95.40;;;;;;5035588;28;20123;-65
2023/09/08 07:48:38;;;;;;;7.03;5.03;;;22.00;95.50;;;;;;5055638;28;20142;-65
2023/09/08 07:51:04;;;;;;;8.88;6.00;;;22.00;95.50;;;;;;5052834;28;20124;-65
2023/09/08 07:53:30;;;;;;;7.88;5.72;;;21.90;95.60;;;;;;5052571;28;20032;-65
2023/09/08 07:55:56;;;;;;;13.35;5.75;;;21.90;96.00;;;;;;5037648;28;20029;-66
2023/09/08 07:58:22;;;;;;;6.70;5.30;;;22.00;95.90;;;;;;5053088;28;20041;-65
2023/09/08 08:00:48;;;;;;;10.35;5.70;;;22.10;95.80;;;;;;5054720;28;20036;-65
2023/09/08 08:03:13;;;;;;;9.25;6.07;;;22.20;95.80;;;;;;5053514;28;20093;-67
2023/09/08 08:05:39;;;;;;;7.95;5.40;;;22.30;95.50;;;;;;5060383;28;20028;-65
2023/09/08 08:08:06;;;;;;;17.15;6.13;;;22.40;95.30;;;;;;5056334;28;20456;-65
2023/09/08 08:10:32;;;;;;;13.00;6.75;;;22.50;95.10;;;;;;5059608;28;20140;-66
2023/09/08 08:12:58;;;;;;;11.15;5.80;;;22.60;94.60;;;;;;5056469;28;20103;-65
2023/09/08 08:15:35;;;;;;;13.50;6.20;;;22.60;94.50;;;;;;5058887;28;20554;-65
2023/09/08 08:18:01;;;;;;;10.57;5.80;;;22.60;94.80;;;;;;5053027;28;20025;-65
2023/09/08 08:20:27;;;;;;;8.40;5.50;;;22.70;95.30;;;;;;5059318;28;20028;-65
2023/09/08 08:22:53;;;;;;;9.00;5.47;;;22.80;95.20;;;;;;5056526;28;20110;-65
2023/09/08 08:25:18;;;;;;;9.90;5.32;;;22.90;95.00;;;;;;5043470;28;20162;-65
2023/09/08 08:27:44;;;;;;;8.05;5.20;;;22.90;95.10;;;;;;5057016;28;20024;-65
2023/09/08 08:30:11;;;;;;;10.30;5.00;;;23.00;94.50;;;;;;5057085;28;20039;-65
2023/09/08 08:32:36;;;;;;;8.80;5.28;;;23.10;94.50;;;;;;5057703;28;20017;-65
2023/09/08 08:35:04;;;;;;;9.07;5.68;;;23.10;94.60;;;;;;5056941;28;20496;-65
2023/09/08 08:37:30;;;;;;;7.50;5.35;;;23.30;94.60;;;;;;5057514;28;20510;-65
2023/09/08 08:39:56;;;;;;;7.53;5.32;;;23.30;93.90;;;;;;5057946;28;20089;-65
2023/09/08 08:42:22;;;;;;;7.72;5.57;;;23.50;94.00;;;;;;5056321;28;20071;-69
2023/09/08 08:44:49;;;;;;;7.82;5.13;;;23.50;93.70;;;;;;5053279;28;20165;-65
2023/09/08 08:47:16;;;;;;;6.53;5.20;;;23.70;93.40;;;;;;5055986;28;20039;-65
2023/09/08 08:49:47;;;;;;;7.05;5.07;;;23.90;93.30;;;;;;5059092;28;20496;-65
2023/09/08 08:52:15;;;;;;;5.95;4.53;;;24.00;92.90;;;;;;5039536;28;20033;-65
2023/09/08 08:54:42;;;;;;;7.53;5.70;;;24.00;92.50;;;;;;5058979;28;20468;-65
2023/09/08 08:57:09;;;;;;;8.38;5.53;;;24.10;92.60;;;;;;5055048;28;20028;-65
2023/09/08 08:59:35;;;;;;;7.25;5.07;;;24.20;92.50;;;;;;5058149;28;20028;-65
2023/09/08 09:02:03;;;;;;;7.38;5.15;;;24.40;92.80;;;;;;5058549;28;20435;-65
2023/09/08 09:04:29;;;;;;;7.38;5.18;;;24.60;91.70;;;;;;5055090;28;20079;-65
2023/09/08 09:06:55;;;;;;;6.20;5.00;;;24.80;91.30;;;;;;5058828;28;20119;-65
2023/09/08 09:09:22;;;;;;;10.60;5.05;;;25.00;91.20;;;;;;5056408;28;20481;-65
2023/09/08 09:11:49;;;;;;;11.60;5.57;;;25.20;91.20;;;;;;5057104;28;20142;-65
2023/09/08 09:14:17;;;;;;;7.90;5.10;;;25.20;90.00;;;;;;5043028;28;20436;-65
2023/09/08 09:16:43;;;;;;;8.75;5.15;;;25.20;90.70;;;;;;5058269;28;20038;-65
2023/09/08 09:19:09;;;;;;;7.95;5.82;;;25.20;90.10;;;;;;5055053;28;20576;-65
2023/09/08 09:21:47;;;;;;;7.80;4.80;;;25.30;90.30;;;;;;5058674;28;20031;-65
2023/09/08 09:24:27;;;;;;;7.13;5.20;;;25.30;90.70;;;;;;5054499;28;20102;-65
2023/09/08 09:26:53;;;;;;;7.88;4.80;;;25.40;90.00;;;;;;5055245;28;20124;-65
2023/09/08 09:29:19;;;;;;;11.07;5.30;;;25.50;89.20;;;;;;5055247;28;20040;-65
2023/09/08 09:31:55;;;;;;;6.50;5.07;;;25.50;90.20;;;;;;5057557;28;20488;-65
2023/09/08 09:34:22;;;;;;;11.80;5.00;;;25.60;90.10;;;;;;5053270;28;20139;-65
2023/09/08 09:36:50;;;;;;;5.50;4.35;;;25.70;89.30;;;;;;5057200;28;20160;-65
2023/09/08 09:39:23;;;;;;;6.93;4.72;;;25.80;88.70;;;;;;5049245;28;20028;-65
2023/09/08 09:41:54;;;;;;;6.03;4.63;;;26.00;89.20;;;;;;5055725;28;20033;-65
2023/09/08 09:44:20;;;;;;;10.27;5.03;;;26.00;88.10;;;;;;5055967;28;20044;-65
2023/09/08 09:46:46;;;;;;;5.72;4.70;;;26.20;86.40;;;;;;5057389;28;20078;-65
2023/09/08 09:49:14;;;;;;;6.78;5.10;;;26.20;86.10;;;;;;5053708;28;20496;-65
2023/09/08 09:51:42;;;;;;;8.82;5.20;;;26.30;85.70;;;;;;5057926;28;20332;-65
2023/09/08 09:54:07;;;;;;;6.70;5.20;;;26.30;85.60;;;;;;5054747;28;20085;-65
2023/09/08 09:56:37;;;;;;;6.82;5.35;;;26.50;84.20;;;;;;5057973;28;20037;-65
2023/09/08 09:59:04;;;;;;;7.07;5.28;;;26.50;84.20;;;;;;5054711;28;20746;-66
2023/09/08 10:01:30;;;;;;;6.43;4.65;;;26.60;83.90;;;;;;5057266;28;20078;-65
2023/09/08 10:03:57;;;;;;;8.27;5.57;;;26.60;84.20;;;;;;5054833;28;20420;-65
2023/09/08 10:06:25;;;;;;;7.70;5.05;;;26.80;83.70;;;;;;5056504;28;20461;-66
2023/09/08 10:08:51;;;;;;;6.85;5.38;;;27.00;82.00;;;;;;5055674;28;20089;-65
2023/09/08 10:11:21;;;;;;;7.80;5.43;;;27.20;81.60;;;;;;5055053;28;20040;-66
2023/09/08 10:13:51;;;;;;;8.25;5.75;;;27.50;80.30;;;;;;5040723;28;20028;-66
2023/09/08 10:16:20;;;;;;;10.48;5.53;;;27.90;77.90;;;;;;5053893;28;20069;-65
2023/09/08 10:18:49;;;;;;;6.75;5.22;;;27.90;76.50;;;;;;5055279;28;20028;-65
2023/09/08 10:21:17;;;;;;;8.95;5.20;;;27.80;78.80;;;;;;5054985;28;20147;-65
2023/09/08 10:23:54;;;;;;;6.53;5.13;;;27.80;79.00;;;;;;5054698;28;20036;-66
2023/09/08 10:26:26;;;;;;;7.20;5.38;;;27.80;78.40;;;;;;5053955;28;20036;-65
2023/09/08 10:28:55;;;;;;;5.93;4.88;;;28.20;77.20;;;;;;5055016;28;20097;-65
2023/09/08 10:31:25;;;;;;;8.88;5.20;;;28.60;76.50;;;;;;5042086;28;20032;-65
2023/09/08 10:33:52;;;;;;;8.55;5.40;;;28.60;74.80;;;;;;5055157;28;20024;-65
2023/09/08 10:36:18;;;;;;;7.78;5.10;;;28.60;74.20;;;;;;5053742;28;20029;-66
2023/09/08 10:38:47;;;;;;;8.00;5.22;;;28.40;74.20;;;;;;5054721;28;20103;-66
2023/09/08 10:41:16;;;;;;;9.75;5.00;;;28.30;74.20;;;;;;5054575;28;20076;-65
2023/09/08 10:43:54;;;;;;;6.85;4.72;;;28.30;74.70;;;;;;5054731;28;20091;-65
2023/09/08 10:46:27;;;;;;;6.00;5.30;;;28.30;74.80;;;;;;5053991;28;20724;-66
2023/09/08 10:48:54;;;;;;;5.70;5.03;;;28.40;73.10;;;;;;5054160;28;20584;-65
2023/09/08 10:51:22;;;;;;;5.20;4.28;;;28.50;72.00;;;;;;5054664;28;20136;-65
2023/09/08 10:53:49;;;;;;;6.18;4.50;;;28.60;70.50;;;;;;5054193;28;20755;-65
2023/09/08 10:56:16;;;;;;;6.22;5.05;;;28.60;72.30;;;;;;5054532;28;20033;-66
2023/09/08 10:58:43;;;;;;;7.65;4.97;;;28.60;73.40;;;;;;5054464;28;20028;-65
2023/09/08 11:01:22;;;;;;;7.85;5.10;;;28.70;72.40;;;;;;5054115;28;20124;-66
2023/09/08 11:03:50;;;;;;;5.35;4.28;;;28.70;71.60;;;;;;5052041;28;20067;-66
2023/09/08 11:06:22;;;;;;;6.03;4.22;;;28.70;72.00;;;;;;5053812;28;20129;-65
2023/09/08 11:08:49;;;;;;;11.02;5.28;;;28.70;71.50;;;;;;5054219;28;20485;-66
2023/09/08 11:11:16;;;;;;;6.25;4.78;;;28.80;69.60;;;;;;5054086;28;20060;-66
2023/09/08 11:13:45;;;;;;;6.20;4.65;;;28.70;69.70;;;;;;5053820;28;20375;-65
2023/09/08 11:16:11;;;;;;;8.45;5.10;;;28.50;69.60;;;;;;5054070;28;20036;-65
2023/09/08 11:18:37;;;;;;;7.70;4.82;;;28.50;69.90;;;;;;5049378;28;20025;-65
2023/09/08 11:21:07;;;;;;;6.57;4.35;;;28.50;70.80;;;;;;5054862;28;20119;-65
2023/09/08 11:23:33;;;;;;;6.68;4.32;;;28.50;70.00;;;;;;5053094;28;20785;-65
2023/09/08 11:26:00;;;;;;;5.45;4.05;;;28.60;68.90;;;;;;5055418;28;20032;-65
2023/09/08 11:28:28;;;;;;;6.18;4.40;;;28.60;69.20;;;;;;5055963;28;20089;-66
2023/09/08 11:30:55;;;;;;;4.85;4.22;;;28.60;67.70;;;;;;5047865;28;20088;-65
2023/09/08 11:33:24;;;;;;;6.63;4.57;;;28.60;69.10;;;;;;5055414;28;20025;-66
2023/09/08 11:35:52;;;;;;;5.88;4.30;;;28.70;69.10;;;;;;5053741;28;20032;-65
2023/09/08 11:38:28;;;;;;;7.35;4.15;;;28.60;68.40;;;;;;5053978;28;20036;-65
2023/09/08 11:40:55;;;;;;;7.18;4.18;;;28.50;68.00;;;;;;5052847;28;20044;-66
2023/09/08 11:43:21;;;;;;;7.07;3.88;;;28.60;68.40;;;;;;5054373;28;20040;-65
2023/09/08 11:45:47;;;;;;;13.77;3.97;;;28.70;68.10;;;;;;5053575;28;20094;-65
2023/09/08 11:48:15;;;;;;;5.18;3.95;;;28.90;68.20;;;;;;5053551;28;20033;-65
2023/09/08 11:50:42;;;;;;;5.60;3.90;;;29.00;66.00;;;;;;5053678;28;20025;-65
2023/09/08 11:53:08;;;;;;;5.78;4.40;;;29.00;65.60;;;;;;5053408;28;20065;-65
2023/09/08 11:55:36;;;;;;;6.90;4.05;;;29.10;65.30;;;;;;5054055;28;20032;-65
2023/09/08 11:58:03;;;;;;;4.72;3.90;;;29.20;64.00;;;;;;5053747;28;20119;-66
2023/09/08 12:00:29;;;;;;;5.80;3.80;;;29.10;64.70;;;;;;5049658;28;20037;-66
2023/09/08 12:03:08;;;;;;;5.07;3.60;;;29.10;65.30;;;;;;5054088;28;20079;-65
2023/09/08 12:05:35;;;;;;;6.03;3.58;;;29.20;65.50;;;;;;5054084;28;20091;-65
2023/09/08 12:08:05;;;;;;;6.13;3.60;;;29.30;64.20;;;;;;5053346;28;20481;-65
2023/09/08 12:10:37;;;;;;;5.00;3.92;;;29.30;63.50;;;;;;5036144;28;20047;-66
2023/09/08 12:13:03;;;;;;;8.57;3.70;;;29.50;63.40;;;;;;5053300;28;20132;-66
2023/09/08 12:15:40;;;;;;;4.90;3.75;;;29.50;62.60;;;;;;5053344;28;20121;-65
2023/09/08 12:18:07;;;;;;;4.60;3.45;;;29.40;61.40;;;;;;5053074;28;20033;-66
2023/09/08 12:20:34;;;;;;;5.03;3.90;;;29.40;62.50;;;;;;5053288;28;20106;-66
2023/09/08 12:23:05;;;;;;;5.20;3.80;;;29.30;63.20;;;;;;5053591;28;20029;-65
2023/09/08 12:25:34;;;;;;;4.93;3.90;;;29.20;63.60;;;;;;5049679;28;20041;-66
2023/09/08 12:28:01;;;;;;;4.13;3.70;;;29.20;62.80;;;;;;5053551;28;20555;-66
2023/09/08 12:30:32;;;;;;;3.65;3.25;;;29.20;63.60;;;;;;5052361;28;20051;-66
2023/09/08 12:33:00;;;;;;;6.15;4.13;;;29.30;62.90;;;;;;5054099;28;20029;-66
2023/09/08 12:35:26;;;;;;;5.65;3.80;;;29.30;61.40;;;;;;5052305;28;20114;-66
2023/09/08 12:38:02;;;;;;;7.53;4.47;;;29.20;60.40;;;;;;5054793;28;20090;-66
2023/09/08 12:40:29;;;;;;;5.57;3.70;;;29.10;61.10;;;;;;5052459;28;20086;-66
2023/09/08 12:42:55;;;;;;;5.55;3.85;;;29.10;62.00;;;;;;5054536;28;20097;-66
2023/09/08 12:45:23;;;;;;;5.95;4.30;;;29.10;62.40;;;;;;5052581;28;20052;-66